Time;durP1;ratioP1;P1;durP2;ratioP2;P2;SDS_P1;SDS_P2;PMS_P1;PMS_P2;Temp;Humidity;BMP_temperature;BMP_pressure;BME280_temperature;BME280_humidity;BME280_pressure;Samples;Min_cycle;Max_cycle;Signal;HPM_P1;HPM_P2
2023/10/04 00:00:31;;;;;;;5.78;0.90;;;12.80;99.90;;;;;;4995615;28;20073;-96
2023/10/04 00:03:05;;;;;;;5.05;1.08;;;12.30;99.90;;;;;;4992648;28;20045;-96
2023/10/04 00:05:34;;;;;;;4.97;1.08;;;12.40;99.90;;;;;;4991023;28;20053;-96
2023/10/04 00:08:00;;;;;;;4.57;1.05;;;12.70;99.90;;;;;;4977536;28;20534;-96
2023/10/04 00:10:29;;;;;;;5.22;1.10;;;12.60;99.90;;;;;;4991286;28;20147;-96
2023/10/04 00:12:58;;;;;;;7.13;1.25;;;12.60;99.90;;;;;;4992850;28;20514;-96
2023/10/04 00:15:29;;;;;;;5.22;1.15;;;12.60;99.90;;;;;;4998166;28;20063;-96
2023/10/04 00:17:55;;;;;;;7.03;1.05;;;12.60;99.90;;;;;;4991916;28;20124;-96
2023/10/04 00:20:31;;;;;;;4.77;1.07;;;12.70;99.90;;;;;;4991169;28;20046;-96
2023/10/04 00:22:59;;;;;;;6.43;1.00;;;12.50;99.90;;;;;;4990286;28;20049;-96
2023/10/04 00:25:25;;;;;;;10.35;1.40;;;12.30;99.90;;;;;;4977274;28;20096;-96
2023/10/04 00:27:57;;;;;;;6.38;1.30;;;12.60;99.90;;;;;;4957312;28;20045;-96
2023/10/04 00:30:26;;;;;;;7.40;1.30;;;12.60;99.90;;;;;;4987914;28;20053;-96
2023/10/04 00:32:56;;;;;;;7.70;1.23;;;12.50;99.90;;;;;;4991592;28;20037;-96
2023/10/04 00:35:25;;;;;;;5.95;1.63;;;12.60;99.90;;;;;;4993623;28;20080;-96
2023/10/04 00:37:56;;;;;;;7.93;1.30;;;12.50;99.90;;;;;;4986355;28;20382;-96
2023/10/04 00:40:31;;;;;;;5.07;1.40;;;11.90;99.90;;;;;;4992056;28;20045;-96
2023/10/04 00:43:01;;;;;;;9.13;1.30;;;12.60;99.90;;;;;;5001303;28;20062;-96
2023/10/04 00:45:37;;;;;;;7.03;1.42;;;12.50;99.90;;;;;;5006877;28;20076;-96
2023/10/04 00:48:20;;;;;;;7.55;1.60;;;12.50;99.90;;;;;;4991786;28;20052;-96
2023/10/04 00:50:47;;;;;;;6.57;1.17;;;12.50;99.90;;;;;;4989222;28;20113;-96
2023/10/04 00:53:26;;;;;;;12.95;2.40;;;12.60;99.90;;;;;;4991632;28;20381;-96
2023/10/04 00:55:57;;;;;;;5.70;1.05;;;12.50;99.90;;;;;;4973192;28;20056;-96
2023/10/04 00:58:26;;;;;;;4.65;1.17;;;12.40;99.90;;;;;;4998185;28;20093;-96
2023/10/04 01:00:52;;;;;;;5.85;1.27;;;12.50;99.90;;;;;;4991741;28;20533;-96
2023/10/04 01:03:24;;;;;;;9.30;1.38;;;12.40;99.90;;;;;;4990788;28;20485;-96
2023/10/04 01:05:51;;;;;;;6.30;1.65;;;12.50;99.90;;;;;;4990763;28;20041;-96
2023/10/04 01:08:21;;;;;;;6.53;1.48;;;12.30;99.90;;;;;;4996184;28;20080;-96
2023/10/04 01:10:51;;;;;;;6.50;1.40;;;12.30;99.90;;;;;;4992957;28;20045;-96
2023/10/04 01:13:26;;;;;;;6.68;1.38;;;11.20;99.90;;;;;;4998520;28;20440;-96
2023/10/04 01:15:55;;;;;;;5.38;1.27;;;12.50;99.90;;;;;;5001139;28;20038;-96
2023/10/04 01:18:22;;;;;;;6.03;1.30;;;12.30;99.90;;;;;;4995540;28;20447;-96
2023/10/04 01:20:49;;;;;;;8.93;1.35;;;12.30;99.90;;;;;;4986843;28;20371;-96
2023/10/04 01:23:18;;;;;;;5.18;1.23;;;12.30;99.90;;;;;;4980523;28;20049;-96
2023/10/04 01:25:48;;;;;;;6.35;1.30;;;12.20;99.90;;;;;;4991647;28;20060;-96
2023/10/04 01:28:27;;;;;;;6.10;1.38;;;12.20;99.90;;;;;;4991065;28;20046;-96
2023/10/04 01:30:55;;;;;;;4.93;1.40;;;12.30;99.90;;;;;;4972982;28;20042;-96
2023/10/04 01:33:21;;;;;;;7.00;1.52;;;12.20;99.90;;;;;;4986712;28;20057;-96
2023/10/04 01:35:53;;;;;;;4.25;1.25;;;12.20;99.90;;;;;;4996235;28;20046;-96
2023/10/04 01:38:27;;;;;;;11.00;1.60;;;12.20;99.90;;;;;;4988025;28;20072;-96
2023/10/04 01:40:56;;;;;;;6.13;1.00;;;12.20;99.90;;;;;;4991517;28;20050;-96
2023/10/04 01:43:26;;;;;;;6.72;1.15;;;12.30;99.90;;;;;;4995385;28;20041;-96
2023/10/04 01:45:59;;;;;;;7.97;1.38;;;12.10;99.90;;;;;;4996784;28;20397;-96
2023/10/04 01:48:30;;;;;;;4.15;0.75;;;12.20;99.90;;;;;;5001941;28;20044;-96
2023/10/04 01:50:56;;;;;;;5.90;1.17;;;12.10;99.90;;;;;;4979504;28;20048;-96
2023/10/04 01:53:24;;;;;;;4.95;1.17;;;12.00;99.90;;;;;;4986381;28;20045;-96
2023/10/04 01:55:50;;;;;;;7.68;1.80;;;12.20;99.90;;;;;;4981776;28;20038;-96
2023/10/04 01:58:23;;;;;;;7.97;1.38;;;12.10;99.90;;;;;;4998198;28;20082;-96
2023/10/04 02:00:59;;;;;;;4.80;1.20;;;12.00;99.90;;;;;;4999551;28;20045;-96
2023/10/04 02:03:25;;;;;;;6.30;1.23;;;11.50;99.90;;;;;;4988180;28;20099;-96
2023/10/04 02:05:58;;;;;;;6.85;1.00;;;12.10;99.90;;;;;;5011519;28;20041;-96
2023/10/04 02:08:24;;;;;;;8.07;1.50;;;12.00;99.90;;;;;;5001749;28;20405;-96
2023/10/04 02:10:52;;;;;;;6.05;1.40;;;12.00;99.90;;;;;;4997597;28;20041;-96
2023/10/04 02:13:19;;;;;;;4.97;1.00;;;12.10;99.90;;;;;;5005190;28;20557;-96
2023/10/04 02:19:53;;;;;;;7.80;1.50;;;14.20;99.90;;;;;;5025691;28;20036;-96
2023/10/04 02:22:22;;;;;;;6.35;1.30;;;12.70;99.90;;;;;;4975814;28;20041;-96
2023/10/04 02:24:49;;;;;;;5.50;1.13;;;11.90;99.90;;;;;;4997406;28;20400;-96
2023/10/04 02:27:19;;;;;;;6.15;1.35;;;12.00;99.90;;;;;;4981479;28;20477;-96
2023/10/04 02:29:46;;;;;;;8.00;1.10;;;11.90;99.90;;;;;;4981944;28;20424;-96
2023/10/04 02:32:13;;;;;;;5.78;1.00;;;10.70;99.90;;;;;;4981795;28;20132;-96
2023/10/04 02:34:42;;;;;;;5.65;1.10;;;12.10;99.90;;;;;;4996536;28;20076;-96
2023/10/04 02:37:11;;;;;;;4.60;1.20;;;13.40;99.90;;;;;;4997469;28;20528;-96
2023/10/04 02:39:37;;;;;;;6.45;1.10;;;13.00;99.90;;;;;;4999194;28;20091;-96
2023/10/04 02:42:12;;;;;;;8.93;1.35;;;11.90;99.90;;;;;;4983490;28;20037;-96
2023/10/04 02:44:41;;;;;;;6.88;1.25;;;11.90;99.90;;;;;;4993645;28;20093;-95
2023/10/04 02:47:07;;;;;;;6.55;1.85;;;11.90;99.90;;;;;;4991887;28;20396;-95
2023/10/04 02:49:37;;;;;;;10.88;1.48;;;12.00;99.90;;;;;;4990628;28;20244;-96
2023/10/04 02:52:06;;;;;;;8.57;1.25;;;12.00;99.90;;;;;;4993318;28;20515;-96
2023/10/04 02:54:33;;;;;;;6.28;1.33;;;12.40;99.90;;;;;;4978329;28;20503;-96
2023/10/04 02:57:00;;;;;;;8.13;1.27;;;11.90;99.90;;;;;;4993760;28;20046;-96
2023/10/04 02:59:28;;;;;;;6.38;1.27;;;12.10;99.90;;;;;;4974273;28;20030;-96
2023/10/04 03:01:54;;;;;;;8.32;1.20;;;12.00;99.90;;;;;;4999206;28;20079;-95
2023/10/04 03:04:22;;;;;;;7.40;1.42;;;12.00;99.90;;;;;;4997821;28;20069;-96
2023/10/04 03:06:51;;;;;;;7.00;1.45;;;12.00;99.90;;;;;;4988063;28;20046;-96
2023/10/04 03:09:17;;;;;;;9.27;1.38;;;12.10;99.90;;;;;;4992964;28;20030;-95
2023/10/04 03:11:49;;;;;;;9.00;1.77;;;13.50;99.90;;;;;;4999497;28;20124;-96
2023/10/04 03:14:15;;;;;;;9.38;1.60;;;13.70;99.90;;;;;;4981043;28;20117;-96
2023/10/04 03:16:42;;;;;;;4.82;1.25;;;12.30;99.90;;;;;;4992973;28;20037;-96
2023/10/04 03:19:11;;;;;;;7.28;1.40;;;12.10;99.90;;;;;;4977665;28;20033;-96
2023/10/04 03:21:44;;;;;;;8.73;1.55;;;12.40;99.90;;;;;;4988558;28;20042;-96
2023/10/04 03:24:10;;;;;;;7.03;1.20;;;12.40;99.90;;;;;;4992347;28;20041;-96
2023/10/04 03:26:37;;;;;;;6.85;1.20;;;12.20;99.90;;;;;;4976238;28;20045;-95
2023/10/04 03:29:06;;;;;;;9.05;1.33;;;12.10;99.90;;;;;;4973499;28;20627;-96
2023/10/04 03:31:35;;;;;;;5.68;1.33;;;12.60;99.90;;;;;;4991818;28;20067;-96
2023/10/04 03:34:02;;;;;;;4.75;1.17;;;12.30;99.90;;;;;;4978873;28;20076;-96
2023/10/04 03:36:29;;;;;;;8.25;1.75;;;12.20;99.90;;;;;;4994990;28;20083;-96
2023/10/04 03:38:55;;;;;;;5.55;1.55;;;12.30;99.90;;;;;;4989786;28;20101;-96
2023/10/04 03:41:21;;;;;;;6.75;1.60;;;12.40;99.90;;;;;;4967055;28;20044;-96
2023/10/04 03:43:47;;;;;;;8.95;1.73;;;12.50;99.90;;;;;;4995602;28;20072;-96
2023/10/04 03:46:18;;;;;;;5.25;1.35;;;12.00;99.90;;;;;;4995390;28;20041;-96
2023/10/04 03:48:53;;;;;;;8.27;1.73;;;12.30;99.90;;;;;;4992755;28;20034;-95
2023/10/04 03:51:20;;;;;;;6.53;1.35;;;12.30;99.90;;;;;;4996764;28;20369;-96
2023/10/04 03:53:47;;;;;;;6.50;1.45;;;12.30;99.90;;;;;;4994329;28;20038;-96
2023/10/04 03:56:15;;;;;;;5.35;1.40;;;12.30;99.90;;;;;;4961537;28;20042;-96
2023/10/04 03:58:40;;;;;;;6.40;1.48;;;12.00;99.90;;;;;;4994777;28;20049;-96
2023/10/04 04:01:10;;;;;;;6.80;1.08;;;12.30;99.90;;;;;;4995881;28;20401;-96
2023/10/04 04:03:36;;;;;;;8.57;1.42;;;12.50;99.90;;;;;;4963061;28;20048;-96
2023/10/04 04:06:02;;;;;;;5.25;1.48;;;12.50;99.90;;;;;;4994848;28;20054;-96
2023/10/04 04:08:28;;;;;;;8.35;1.48;;;13.70;99.90;;;;;;4996244;28;20046;-96
2023/10/04 04:10:54;;;;;;;5.40;1.27;;;13.80;99.90;;;;;;4990451;28;20056;-96
2023/10/04 04:13:20;;;;;;;4.35;1.10;;;11.60;99.90;;;;;;4995598;28;20052;-96
2023/10/04 04:15:48;;;;;;;5.75;1.17;;;12.30;99.90;;;;;;4987636;28;20041;-96
2023/10/04 04:18:19;;;;;;;4.80;1.42;;;12.50;99.90;;;;;;4984435;28;20044;-96
2023/10/04 04:20:47;;;;;;;10.10;1.67;;;12.20;99.90;;;;;;4995612;28;20045;-96
2023/10/04 04:23:13;;;;;;;7.50;1.65;;;12.20;99.90;;;;;;4995241;28;20045;-96
2023/10/04 04:25:40;;;;;;;4.95;1.33;;;12.20;99.90;;;;;;4985991;28;20041;-96
2023/10/04 04:28:07;;;;;;;7.03;1.50;;;12.20;99.90;;;;;;4989497;28;20077;-96
2023/10/04 04:30:35;;;;;;;7.35;1.25;;;12.20;99.90;;;;;;4995035;28;20564;-96
2023/10/04 04:33:07;;;;;;;8.75;1.30;;;12.10;99.90;;;;;;4995543;28;20041;-96
2023/10/04 04:40:44;;;;;;;5.38;1.10;;;12.10;99.90;;;;;;5006454;28;20554;-96
2023/10/04 04:45:51;;;;;;;;;;;11.90;99.90;;;;;;5014867;28;20042;-96
2023/10/04 04:48:31;;;;;;;5.40;1.23;;;12.10;99.90;;;;;;4991013;28;19921;-96
2023/10/04 04:51:02;;;;;;;6.55;1.20;;;12.10;99.90;;;;;;4987901;28;20100;-96
2023/10/04 04:53:28;;;;;;;9.52;1.70;;;10.80;99.90;;;;;;4994870;28;20049;-96
2023/10/04 04:55:54;;;;;;;4.93;1.50;;;10.60;99.90;;;;;;4974453;28;20073;-96
2023/10/04 04:58:25;;;;;;;8.20;1.33;;;12.00;99.90;;;;;;4992856;28;20045;-96
2023/10/04 05:00:55;;;;;;;6.82;1.35;;;12.00;99.90;;;;;;4995071;28;20331;-96
2023/10/04 05:03:24;;;;;;;5.75;1.40;;;11.00;99.90;;;;;;4990225;28;20046;-96
2023/10/04 05:05:56;;;;;;;4.82;1.40;;;12.00;99.90;;;;;;4991854;28;20080;-96
2023/10/04 05:08:26;;;;;;;11.50;2.17;;;12.00;99.90;;;;;;4992211;28;20045;-96
2023/10/04 05:10:54;;;;;;;9.23;1.73;;;12.10;99.90;;;;;;4992201;28;20128;-96
2023/10/04 05:13:21;;;;;;;6.05;1.50;;;12.20;99.90;;;;;;4975963;28;20072;-96
2023/10/04 05:16:04;;;;;;;6.38;1.60;;;12.10;99.90;;;;;;4986776;28;20034;-96
2023/10/04 05:18:37;;;;;;;7.07;1.40;;;12.10;99.90;;;;;;4991110;28;20038;-96
2023/10/04 05:21:04;;;;;;;7.13;1.42;;;12.50;99.90;;;;;;4991653;28;20060;-96
2023/10/04 05:23:33;;;;;;;6.35;1.10;;;12.50;99.90;;;;;;4996792;28;20298;-95
2023/10/04 05:26:19;;;;;;;6.05;1.30;;;12.10;99.90;;;;;;4993140;28;20442;-96
2023/10/04 05:28:52;;;;;;;7.70;1.50;;;12.40;99.90;;;;;;4993752;28;20117;-96
2023/10/04 05:31:18;;;;;;;6.97;1.60;;;12.10;99.90;;;;;;4995857;28;20096;-96
2023/10/04 05:33:44;;;;;;;7.30;1.52;;;12.40;99.90;;;;;;4990293;28;20042;-96
2023/10/04 05:36:10;;;;;;;6.72;1.58;;;12.00;99.90;;;;;;4984688;28;20037;-95
2023/10/04 05:38:36;;;;;;;6.80;1.63;;;12.00;99.90;;;;;;4995035;28;20029;-95
2023/10/04 05:41:02;;;;;;;10.23;1.73;;;12.00;99.90;;;;;;4959974;28;20658;-94
2023/10/04 05:43:34;;;;;;;5.63;1.40;;;12.20;99.90;;;;;;4982778;28;20061;-96
2023/10/04 05:46:00;;;;;;;9.02;1.90;;;12.00;99.90;;;;;;4979677;28;20193;-92
2023/10/04 05:48:26;;;;;;;8.82;1.40;;;12.10;99.90;;;;;;4963702;28;20037;-91
2023/10/04 05:50:54;;;;;;;6.43;1.70;;;12.50;99.90;;;;;;4970159;28;20049;-96
2023/10/04 05:53:21;;;;;;;5.72;1.45;;;13.60;99.90;;;;;;4997889;28;20038;-96
2023/10/04 05:55:48;;;;;;;6.78;1.27;;;12.10;99.90;;;;;;4985628;28;20040;-96
2023/10/04 05:58:16;;;;;;;6.97;1.50;;;12.10;99.90;;;;;;4980565;28;20072;-96
2023/10/04 06:00:41;;;;;;;;;;;12.10;99.90;;;;;;4990402;28;20166;-96
2023/10/04 06:03:11;;;;;;;5.15;1.20;;;12.30;99.90;;;;;;4996294;28;19917;-96
2023/10/04 06:05:38;;;;;;;8.27;1.58;;;12.10;99.90;;;;;;5006230;28;20110;-96
2023/10/04 06:08:15;;;;;;;4.25;1.55;;;12.40;99.90;;;;;;5000054;28;20121;-96
2023/10/04 06:10:43;;;;;;;5.93;1.55;;;14.20;99.90;;;;;;4976918;28;20037;-96
2023/10/04 06:13:12;;;;;;;7.03;1.70;;;12.50;99.90;;;;;;4985936;28;20179;-96
2023/10/04 06:15:48;;;;;;;7.93;1.52;;;12.10;99.90;;;;;;5000246;28;20484;-96
2023/10/04 06:18:19;;;;;;;8.45;1.70;;;12.20;99.90;;;;;;4997868;28;20110;-96
2023/10/04 06:20:45;;;;;;;5.35;1.17;;;12.30;99.90;;;;;;4997231;28;20103;-96
2023/10/04 06:23:14;;;;;;;4.93;1.25;;;12.40;99.90;;;;;;4997835;28;20038;-96
2023/10/04 06:25:56;;;;;;;7.32;1.70;;;12.50;99.90;;;;;;4996369;28;20521;-96
2023/10/04 06:28:26;;;;;;;6.80;1.75;;;12.00;99.90;;;;;;4988056;28;20033;-96
2023/10/04 06:30:52;;;;;;;6.45;1.77;;;12.60;99.90;;;;;;4998085;28;20045;-96
2023/10/04 06:33:20;;;;;;;6.45;1.85;;;12.40;99.90;;;;;;4993962;28;20045;-96
2023/10/04 06:35:47;;;;;;;6.78;1.73;;;12.50;99.90;;;;;;5000666;28;20106;-96
2023/10/04 06:38:13;;;;;;;6.30;1.70;;;12.50;99.90;;;;;;4978746;28;20033;-96
2023/10/04 06:40:40;;;;;;;10.23;1.50;;;12.50;99.90;;;;;;4992850;28;20382;-95
2023/10/04 06:43:08;;;;;;;6.03;1.48;;;;;;;;;;4994893;28;20504;-96
2023/10/04 06:45:35;;;;;;;;;;;12.80;99.90;;;;;;4999576;28;20053;-95
2023/10/04 06:48:03;;;;;;;7.38;1.92;;;12.90;99.90;;;;;;4987400;28;20003;-95
2023/10/04 06:50:53;;;;;;;7.07;1.80;;;12.90;99.90;;;;;;4979026;28;20026;-94
2023/10/04 06:53:22;;;;;;;6.00;1.90;;;13.00;99.90;;;;;;4999842;28;20180;-96
2023/10/04 06:55:48;;;;;;;6.00;1.92;;;13.10;99.90;;;;;;4995511;28;20098;-96
2023/10/04 06:58:15;;;;;;;7.60;1.77;;;13.20;99.90;;;;;;5008346;28;20451;-95
2023/10/04 07:00:41;;;;;;;9.13;1.95;;;13.30;99.90;;;;;;4967356;28;20050;-96
2023/10/04 07:03:07;;;;;;;5.15;1.98;;;13.30;99.90;;;;;;4975388;28;20045;-96
2023/10/04 07:05:38;;;;;;;8.07;1.92;;;13.40;99.90;;;;;;4996547;28;20511;-96
2023/10/04 07:08:12;;;;;;;8.13;2.10;;;13.50;99.90;;;;;;4980941;28;20052;-96
2023/10/04 07:10:38;;;;;;;5.75;1.80;;;13.70;99.90;;;;;;4995041;28;20462;-96
2023/10/04 07:13:06;;;;;;;11.00;2.28;;;13.80;99.90;;;;;;4989432;28;20037;-96
2023/10/04 07:15:41;;;;;;;4.88;1.98;;;13.80;99.90;;;;;;4995011;28;20288;-96
2023/10/04 07:18:12;;;;;;;9.73;2.50;;;14.00;99.90;;;;;;4994632;28;20052;-96
2023/10/04 07:20:39;;;;;;;7.35;1.60;;;14.10;99.90;;;;;;4994583;28;20056;-96
2023/10/04 07:23:23;;;;;;;8.52;2.13;;;14.20;99.90;;;;;;4999962;28;20043;-96
2023/10/04 07:25:49;;;;;;;6.40;2.03;;;14.10;99.90;;;;;;5005851;28;20037;-96
2023/10/04 07:28:16;;;;;;;7.05;2.03;;;14.40;99.90;;;;;;4999770;28;20110;-94
2023/10/04 07:30:45;;;;;;;11.15;2.03;;;14.60;99.90;;;;;;4996500;28;20130;-96
2023/10/04 07:33:11;;;;;;;7.63;2.00;;;14.60;99.90;;;;;;4983958;28;20388;-96
2023/10/04 07:35:40;;;;;;;8.25;1.77;;;14.70;99.90;;;;;;4971452;28;20049;-94
2023/10/04 07:38:06;;;;;;;7.63;2.15;;;14.80;99.90;;;;;;4990543;28;20063;-93
2023/10/04 07:40:32;;;;;;;7.18;1.88;;;15.00;99.90;;;;;;4982912;28;20045;-94
2023/10/04 07:43:01;;;;;;;6.80;1.80;;;14.70;99.90;;;;;;5008730;28;20128;-94
2023/10/04 07:45:31;;;;;;;7.22;2.00;;;15.10;99.90;;;;;;4994794;28;20045;-94
2023/10/04 07:47:57;;;;;;;7.95;2.45;;;15.30;99.90;;;;;;4998714;28;20281;-94
2023/10/04 07:50:25;;;;;;;6.68;2.00;;;15.50;99.90;;;;;;4979094;28;20034;-94
2023/10/04 07:52:54;;;;;;;5.95;2.10;;;15.80;99.90;;;;;;4992976;28;20037;-94
2023/10/04 07:55:22;;;;;;;10.30;2.08;;;16.30;99.90;;;;;;4995917;28;20083;-94
2023/10/04 07:57:56;;;;;;;8.07;2.08;;;16.10;99.90;;;;;;4977899;28;20112;-94
2023/10/04 08:00:22;;;;;;;5.47;2.10;;;16.20;99.90;;;;;;4981417;28;20038;-94
2023/10/04 08:02:52;;;;;;;11.45;2.70;;;16.30;99.90;;;;;;4986122;28;20602;-94
2023/10/04 08:05:20;;;;;;;8.23;2.00;;;16.30;99.90;;;;;;4987001;28;20524;-95
2023/10/04 08:07:50;;;;;;;7.97;2.10;;;16.60;99.90;;;;;;4992607;28;20081;-93
2023/10/04 08:10:23;;;;;;;5.45;1.60;;;17.10;99.90;;;;;;4993131;28;20357;-94
2023/10/04 08:12:54;;;;;;;7.57;2.20;;;17.50;99.90;;;;;;4977648;28;20485;-94
2023/10/04 08:15:27;;;;;;;8.82;2.50;;;17.80;99.90;;;;;;4992184;28;20544;-94
2023/10/04 08:17:54;;;;;;;7.57;2.17;;;17.90;99.90;;;;;;4991916;28;20394;-94
2023/10/04 08:20:24;;;;;;;5.00;1.88;;;17.80;99.90;;;;;;4970789;28;20046;-94
2023/10/04 08:22:50;;;;;;;6.30;1.92;;;17.70;99.90;;;;;;4993235;28;20533;-95
2023/10/04 08:25:17;;;;;;;6.80;2.00;;;17.50;99.90;;;;;;4992301;28;20037;-94
2023/10/04 08:27:44;;;;;;;8.40;2.13;;;17.40;99.90;;;;;;4992151;28;20048;-93
2023/10/04 08:30:12;;;;;;;8.57;2.10;;;17.20;99.90;;;;;;4989111;28;20044;-96
2023/10/04 08:32:43;;;;;;;7.28;2.20;;;17.10;99.90;;;;;;4990483;28;20049;-95
2023/10/04 08:35:24;;;;;;;8.63;2.45;;;17.00;99.90;;;;;;4980119;28;20077;-92
2023/10/04 08:37:55;;;;;;;7.47;2.13;;;16.80;99.90;;;;;;4975892;28;20493;-95
2023/10/04 08:40:28;;;;;;;7.78;2.10;;;16.80;99.90;;;;;;4976919;28;20058;-94
2023/10/04 08:42:55;;;;;;;10.98;2.88;;;16.80;99.90;;;;;;4991690;28;20132;-95
2023/10/04 08:45:25;;;;;;;7.90;2.15;;;16.90;99.90;;;;;;4995367;28;20496;-95
2023/10/04 08:47:52;;;;;;;6.60;2.22;;;17.00;99.90;;;;;;4996113;28;20106;-94
2023/10/04 08:50:29;;;;;;;;;;;17.10;99.90;;;;;;4985396;28;20072;-92
2023/10/04 08:53:08;;;;;;;8.50;2.35;;;17.20;99.90;;;;;;4998271;28;19924;-92
2023/10/04 08:55:42;;;;;;;9.02;2.42;;;17.30;99.90;;;;;;5019228;28;20029;-95
2023/10/04 08:58:09;;;;;;;6.55;2.40;;;17.40;99.90;;;;;;5004798;28;20049;-94
2023/10/04 09:00:36;;;;;;;7.85;2.22;;;17.50;99.90;;;;;;4991115;28;20496;-95
2023/10/04 09:03:07;;;;;;;6.35;2.15;;;17.60;99.90;;;;;;4997403;28;20800;-93
2023/10/04 09:05:34;;;;;;;6.85;1.95;;;17.50;99.90;;;;;;5000897;28;20080;-89
2023/10/04 09:08:04;;;;;;;9.70;2.20;;;17.60;99.90;;;;;;4992666;28;20040;-93
2023/10/04 09:10:33;;;;;;;6.57;2.38;;;17.60;99.90;;;;;;4998322;28;20029;-93
2023/10/04 09:13:03;;;;;;;6.05;1.92;;;17.60;99.90;;;;;;5003665;28;20029;-93
2023/10/04 09:15:30;;;;;;;6.50;2.30;;;17.60;99.90;;;;;;4999684;28;20034;-93
2023/10/04 09:17:57;;;;;;;5.10;2.13;;;17.70;99.90;;;;;;4983029;28;20049;-94
2023/10/04 09:20:31;;;;;;;7.72;2.25;;;17.70;99.90;;;;;;4982288;28;20052;-93
2023/10/04 09:23:02;;;;;;;9.13;2.35;;;17.70;99.90;;;;;;4969996;28;20138;-94
2023/10/04 09:25:39;;;;;;;5.35;2.20;;;17.80;99.90;;;;;;4996220;28;20255;-93
2023/10/04 09:28:08;;;;;;;6.28;2.17;;;17.90;99.90;;;;;;4999649;28;20124;-94
2023/10/04 09:30:36;;;;;;;7.80;2.10;;;17.90;99.90;;;;;;4999439;28;20507;-93
2023/10/04 09:33:07;;;;;;;7.50;2.35;;;17.80;99.90;;;;;;4985701;28;20091;-93
2023/10/04 09:35:43;;;;;;;7.13;2.70;;;17.90;99.90;;;;;;5000065;28;20291;-92
2023/10/04 09:38:16;;;;;;;7.60;2.22;;;17.90;99.90;;;;;;4985627;28;20037;-93
2023/10/04 09:40:59;;;;;;;7.43;2.28;;;18.00;99.90;;;;;;4987882;28;20037;-93
2023/10/04 09:43:32;;;;;;;9.80;2.13;;;18.00;99.90;;;;;;4996484;28;20049;-93
2023/10/04 09:45:58;;;;;;;8.75;2.40;;;18.00;99.90;;;;;;5003056;28;20123;-93
2023/10/04 09:48:31;;;;;;;10.75;2.47;;;18.00;99.90;;;;;;4963653;28;20191;-93
2023/10/04 09:51:01;;;;;;;5.50;2.60;;;17.90;99.90;;;;;;4997618;28;20088;-93
2023/10/04 09:53:28;;;;;;;10.07;2.47;;;17.80;99.90;;;;;;4969482;28;20353;-92
2023/10/04 09:55:56;;;;;;;6.90;2.10;;;17.80;99.90;;;;;;4985974;28;20037;-93
2023/10/04 09:58:26;;;;;;;7.05;2.15;;;17.60;99.90;;;;;;4985306;28;20049;-93
2023/10/04 10:00:55;;;;;;;9.05;2.53;;;17.40;99.90;;;;;;4990358;28;20076;-94
2023/10/04 10:03:28;;;;;;;7.90;2.40;;;17.40;99.90;;;;;;5009614;28;20042;-93
2023/10/04 10:05:58;;;;;;;7.57;2.30;;;17.40;99.90;;;;;;4995872;28;20050;-93
2023/10/04 10:08:29;;;;;;;7.53;2.50;;;17.40;99.90;;;;;;4985500;28;20034;-93
2023/10/04 10:10:57;;;;;;;7.60;2.25;;;17.40;99.90;;;;;;4997236;28;20094;-93
2023/10/04 10:13:25;;;;;;;8.52;2.38;;;17.60;99.90;;;;;;4974268;28;20040;-92
2023/10/04 10:15:53;;;;;;;8.40;2.50;;;17.70;99.90;;;;;;4991463;28;20033;-93
2023/10/04 10:18:21;;;;;;;7.35;2.50;;;17.70;99.90;;;;;;4982822;28;20508;-92
2023/10/04 10:20:47;;;;;;;5.82;2.65;;;17.80;99.90;;;;;;4976067;28;20049;-93
2023/10/04 10:23:13;;;;;;;7.13;2.40;;;17.80;99.90;;;;;;4992812;28;20076;-93
2023/10/04 10:25:41;;;;;;;6.72;3.13;;;17.80;99.90;;;;;;5004779;28;20119;-93
2023/10/04 10:28:23;;;;;;;6.25;2.38;;;17.70;99.90;;;;;;4979403;28;20426;-93
2023/10/04 10:30:59;;;;;;;8.60;2.85;;;17.60;99.90;;;;;;4987049;28;20041;-93
2023/10/04 10:33:25;;;;;;;9.32;3.03;;;17.50;99.90;;;;;;4992350;28;20045;-93
2023/10/04 10:35:52;;;;;;;7.30;2.63;;;17.50;99.90;;;;;;5011017;28;20408;-94
2023/10/04 10:38:51;;;;;;;11.25;2.90;;;17.40;99.90;;;;;;4978629;28;20057;-94
2023/10/04 10:41:32;;;;;;;;;;;17.40;99.90;;;;;;4954125;28;20044;-93
2023/10/04 10:44:23;;;;;;;7.65;2.53;;;17.30;99.90;;;;;;4998092;28;19929;-94
2023/10/04 10:47:14;;;;;;;8.35;2.60;;;17.30;99.90;;;;;;4976150;28;20041;-94
2023/10/04 10:49:56;;;;;;;6.15;2.55;;;17.30;99.90;;;;;;5002137;28;20392;-94
2023/10/04 10:52:34;;;;;;;6.38;2.28;;;17.20;99.90;;;;;;5003749;28;20038;-95
2023/10/04 10:55:16;;;;;;;7.85;2.22;;;17.20;99.90;;;;;;4994131;28;20044;-94
2023/10/04 10:57:47;;;;;;;6.45;2.50;;;17.10;99.90;;;;;;4991669;28;20179;-94
2023/10/04 11:02:43;;;;;;;10.85;2.60;;;17.00;99.90;;;;;;5017566;28;20150;-94
2023/10/04 11:05:10;;;;;;;7.13;2.70;;;17.00;99.90;;;;;;4974664;28;20045;-95
2023/10/04 11:07:37;;;;;;;6.68;2.92;;;17.00;99.90;;;;;;4965349;28;20496;-94
2023/10/04 11:10:05;;;;;;;7.00;2.63;;;17.00;99.90;;;;;;4996790;28;20095;-94
2023/10/04 11:12:37;;;;;;;9.10;2.50;;;17.00;99.90;;;;;;4981346;28;20041;-94
2023/10/04 11:15:06;;;;;;;8.50;3.05;;;16.90;99.90;;;;;;4994844;28;20080;-94
2023/10/04 11:17:35;;;;;;;6.82;2.55;;;16.90;99.90;;;;;;4983549;28;20037;-92
2023/10/04 11:20:09;;;;;;;6.75;2.20;;;16.90;99.90;;;;;;4993687;28;20612;-93
2023/10/04 11:22:39;;;;;;;7.65;2.97;;;16.90;99.90;;;;;;4977147;28;20037;-93
2023/10/04 11:25:08;;;;;;;7.22;2.60;;;16.80;99.90;;;;;;4992613;28;20063;-93
2023/10/04 11:27:36;;;;;;;7.88;2.60;;;16.90;99.90;;;;;;4979662;28;20041;-92
2023/10/04 11:30:04;;;;;;;7.75;2.85;;;16.80;99.90;;;;;;5009671;28;20259;-93
2023/10/04 11:32:31;;;;;;;8.68;2.97;;;16.80;99.90;;;;;;5000272;28;20060;-93
2023/10/04 11:34:57;;;;;;;9.55;2.65;;;16.90;99.90;;;;;;4995670;28;20107;-93
2023/10/04 11:37:28;;;;;;;9.20;2.55;;;16.90;99.90;;;;;;4994489;28;20041;-93
2023/10/04 11:39:54;;;;;;;5.97;2.83;;;16.90;99.90;;;;;;4989663;28;20445;-94
2023/10/04 11:42:23;;;;;;;6.53;2.75;;;16.80;99.90;;;;;;4975246;28;20105;-95
2023/10/04 11:44:49;;;;;;;6.10;2.63;;;16.50;99.90;;;;;;4994631;28;20085;-92
2023/10/04 11:47:31;;;;;;;7.65;2.53;;;16.90;99.90;;;;;;4995550;28;20066;-93
2023/10/04 11:49:59;;;;;;;7.53;2.90;;;17.00;99.90;;;;;;4995288;28;20485;-92
2023/10/04 11:52:32;;;;;;;8.02;2.90;;;17.00;99.90;;;;;;4992689;28;20480;-93
2023/10/04 11:54:59;;;;;;;8.40;2.78;;;17.00;99.90;;;;;;4995738;28;20041;-93
2023/10/04 11:57:31;;;;;;;6.75;2.95;;;17.00;99.90;;;;;;4975666;28;20041;-93
2023/10/04 11:59:59;;;;;;;6.38;2.70;;;17.00;99.90;;;;;;4990001;28;20039;-93
2023/10/04 12:02:25;;;;;;;7.15;2.47;;;17.00;99.90;;;;;;4994571;28;20452;-90
2023/10/04 12:04:52;;;;;;;5.38;2.60;;;17.00;99.90;;;;;;4984097;28;20449;-93
2023/10/04 12:07:18;;;;;;;8.68;2.60;;;17.00;99.90;;;;;;4993425;28;20415;-93
2023/10/04 12:09:44;;;;;;;6.97;2.90;;;17.00;99.90;;;;;;4984518;28;20038;-93
2023/10/04 12:12:16;;;;;;;7.63;2.70;;;17.00;99.90;;;;;;4984513;28;20092;-94
2023/10/04 12:14:43;;;;;;;6.63;2.70;;;17.00;99.90;;;;;;4971308;28;20041;-93
2023/10/04 12:17:08;;;;;;;6.07;2.22;;;17.10;99.90;;;;;;4992338;28;20283;-93
2023/10/04 12:19:35;;;;;;;6.85;2.55;;;17.10;99.90;;;;;;4970499;28;20041;-93
2023/10/04 12:22:11;;;;;;;5.93;2.53;;;17.20;99.90;;;;;;4978203;28;20107;-92
2023/10/04 12:24:41;;;;;;;6.47;2.30;;;17.20;99.90;;;;;;4980014;28;20033;-92
2023/10/04 12:27:08;;;;;;;6.55;2.22;;;17.20;99.90;;;;;;4958949;28;20068;-93
2023/10/04 12:29:38;;;;;;;6.40;2.38;;;17.30;99.90;;;;;;4964329;28;20098;-93
2023/10/04 12:32:08;;;;;;;7.18;1.67;;;17.10;99.90;;;;;;4987446;28;20065;-94
2023/10/04 12:34:35;;;;;;;6.70;2.20;;;17.30;99.90;;;;;;4971356;28;20034;-93
2023/10/04 12:37:00;;;;;;;7.65;2.00;;;17.30;99.90;;;;;;4991006;28;20121;-93
2023/10/04 12:39:27;;;;;;;6.30;2.20;;;17.20;99.90;;;;;;4990539;28;20116;-94
2023/10/04 12:41:55;;;;;;;4.50;1.73;;;17.90;99.90;;;;;;4990192;28;20458;-91
2023/10/04 12:44:21;;;;;;;6.13;2.45;;;17.30;99.90;;;;;;4993624;28;20447;-91
2023/10/04 12:46:48;;;;;;;4.22;2.00;;;17.30;99.90;;;;;;4973395;28;20089;-94
2023/10/04 12:49:15;;;;;;;7.07;1.92;;;17.30;99.90;;;;;;4975065;28;20049;-93
2023/10/04 12:51:42;;;;;;;5.95;1.98;;;17.30;99.90;;;;;;4995513;28;20420;-90
2023/10/04 12:54:09;;;;;;;5.65;1.98;;;17.40;99.90;;;;;;4977941;28;20049;-92
2023/10/04 12:56:36;;;;;;;6.85;2.35;;;17.40;99.90;;;;;;4985265;28;20643;-92
2023/10/04 12:59:06;;;;;;;5.57;1.60;;;17.40;99.90;;;;;;4972201;28;20128;-90
2023/10/04 13:01:33;;;;;;;5.80;1.83;;;17.40;99.90;;;;;;4996105;28;20137;-92
2023/10/04 13:04:03;;;;;;;4.93;2.10;;;17.40;99.90;;;;;;4978137;28;20564;-92
2023/10/04 13:06:29;;;;;;;7.03;1.83;;;17.40;99.90;;;;;;4998266;28;20044;-91
2023/10/04 13:08:55;;;;;;;4.90;1.40;;;17.40;99.90;;;;;;4996266;28;20440;-92
2023/10/04 13:11:21;;;;;;;7.53;1.93;;;17.40;99.90;;;;;;4986837;28;20482;-92
2023/10/04 13:13:50;;;;;;;5.18;1.88;;;17.40;99.90;;;;;;4979046;28;20120;-91